sensor_id;sensor_type;location;lat;lon;timestamp;P1;durP1;ratioP1;P2;durP2;ratioP2
26822;SDS011;14852;51.910;8.878;2023-10-13T00:01:58;8.63;;;5.35;;
26822;SDS011;14852;51.910;8.878;2023-10-13T00:04:27;6.43;;;5.20;;
26822;SDS011;14852;51.910;8.878;2023-10-13T00:06:55;6.35;;;5.75;;
26822;SDS011;14852;51.910;8.878;2023-10-13T00:09:30;6.95;;;5.88;;
26822;SDS011;14852;51.910;8.878;2023-10-13T00:12:06;6.78;;;5.47;;
26822;SDS011;14852;51.910;8.878;2023-10-13T00:14:38;7.47;;;6.68;;
26822;SDS011;14852;51.910;8.878;2023-10-13T00:17:10;7.07;;;6.13;;
26822;SDS011;14852;51.910;8.878;2023-10-13T00:19:45;8.48;;;5.88;;
26822;SDS011;14852;51.910;8.878;2023-10-13T00:22:15;9.20;;;6.28;;
26822;SDS011;14852;51.910;8.878;2023-10-13T00:24:42;6.97;;;6.20;;
26822;SDS011;14852;51.910;8.878;2023-10-13T00:27:11;6.75;;;6.05;;
26822;SDS011;14852;51.910;8.878;2023-10-13T00:30:02;7.93;;;5.60;;
26822;SDS011;14852;51.910;8.878;2023-10-13T00:32:42;6.18;;;5.57;;
26822;SDS011;14852;51.910;8.878;2023-10-13T00:35:11;7.22;;;6.55;;
26822;SDS011;14852;51.910;8.878;2023-10-13T00:37:50;8.05;;;6.80;;
26822;SDS011;14852;51.910;8.878;2023-10-13T00:40:23;9.48;;;7.28;;
26822;SDS011;14852;51.910;8.878;2023-10-13T00:42:55;7.38;;;6.60;;
26822;SDS011;14852;51.910;8.878;2023-10-13T00:45:52;6.30;;;5.70;;
26822;SDS011;14852;51.910;8.878;2023-10-13T00:48:23;8.13;;;6.85;;
26822;SDS011;14852;51.910;8.878;2023-10-13T00:50:58;7.95;;;6.40;;
26822;SDS011;14852;51.910;8.878;2023-10-13T00:53:29;9.77;;;6.55;;
26822;SDS011;14852;51.910;8.878;2023-10-13T00:55:59;7.53;;;6.65;;
26822;SDS011;14852;51.910;8.878;2023-10-13T00:58:36;9.50;;;7.05;;
26822;SDS011;14852;51.910;8.878;2023-10-13T01:01:05;7.55;;;6.82;;
26822;SDS011;14852;51.910;8.878;2023-10-13T01:06:17;6.85;;;6.22;;
26822;SDS011;14852;51.910;8.878;2023-10-13T01:08:47;8.23;;;7.20;;
26822;SDS011;14852;51.910;8.878;2023-10-13T01:11:16;7.63;;;6.82;;
26822;SDS011;14852;51.910;8.878;2023-10-13T01:17:09;7.22;;;6.57;;
26822;SDS011;14852;51.910;8.878;2023-10-13T01:19:35;9.73;;;8.15;;
26822;SDS011;14852;51.910;8.878;2023-10-13T01:22:07;9.98;;;6.53;;
26822;SDS011;14852;51.910;8.878;2023-10-13T01:24:34;7.78;;;7.07;;
26822;SDS011;14852;51.910;8.878;2023-10-13T01:27:01;8.20;;;7.30;;
26822;SDS011;14852;51.910;8.878;2023-10-13T01:29:43;7.43;;;6.53;;
26822;SDS011;14852;51.910;8.878;2023-10-13T01:32:29;8.40;;;7.10;;
26822;SDS011;14852;51.910;8.878;2023-10-13T01:34:54;7.85;;;7.05;;
26822;SDS011;14852;51.910;8.878;2023-10-13T01:37:22;8.10;;;7.28;;
26822;SDS011;14852;51.910;8.878;2023-10-13T01:39:48;11.02;;;7.50;;
26822;SDS011;14852;51.910;8.878;2023-10-13T01:42:15;8.00;;;7.30;;
26822;SDS011;14852;51.910;8.878;2023-10-13T01:44:50;9.02;;;7.05;;
26822;SDS011;14852;51.910;8.878;2023-10-13T01:47:16;8.80;;;7.78;;
26822;SDS011;14852;51.910;8.878;2023-10-13T01:49:43;8.18;;;7.15;;
26822;SDS011;14852;51.910;8.878;2023-10-13T01:52:12;11.30;;;7.82;;
26822;SDS011;14852;51.910;8.878;2023-10-13T01:54:42;8.57;;;7.10;;
26822;SDS011;14852;51.910;8.878;2023-10-13T01:57:13;9.45;;;8.25;;
26822;SDS011;14852;51.910;8.878;2023-10-13T01:59:48;8.40;;;7.50;;
26822;SDS011;14852;51.910;8.878;2023-10-13T02:02:15;9.70;;;8.35;;
26822;SDS011;14852;51.910;8.878;2023-10-13T02:04:53;9.20;;;8.23;;
26822;SDS011;14852;51.910;8.878;2023-10-13T02:07:27;8.75;;;7.90;;
26822;SDS011;14852;51.910;8.878;2023-10-13T02:09:58;9.55;;;8.15;;
26822;SDS011;14852;51.910;8.878;2023-10-13T02:12:24;9.05;;;8.27;;
26822;SDS011;14852;51.910;8.878;2023-10-13T02:15:07;8.65;;;7.85;;
26822;SDS011;14852;51.910;8.878;2023-10-13T02:17:38;8.27;;;7.45;;
26822;SDS011;14852;51.910;8.878;2023-10-13T02:20:08;9.93;;;7.88;;
26822;SDS011;14852;51.910;8.878;2023-10-13T02:22:39;8.85;;;7.95;;
26822;SDS011;14852;51.910;8.878;2023-10-13T02:25:17;10.15;;;9.15;;
26822;SDS011;14852;51.910;8.878;2023-10-13T02:28:12;8.57;;;7.68;;
26822;SDS011;14852;51.910;8.878;2023-10-13T02:30:47;10.07;;;9.07;;
26822;SDS011;14852;51.910;8.878;2023-10-13T02:33:18;9.10;;;8.23;;
26822;SDS011;14852;51.910;8.878;2023-10-13T02:35:47;9.32;;;8.25;;
26822;SDS011;14852;51.910;8.878;2023-10-13T02:38:20;9.32;;;8.15;;
26822;SDS011;14852;51.910;8.878;2023-10-13T02:41:14;8.55;;;7.72;;
26822;SDS011;14852;51.910;8.878;2023-10-13T02:43:54;7.60;;;6.90;;
26822;SDS011;14852;51.910;8.878;2023-10-13T02:46:22;8.77;;;7.97;;
26822;SDS011;14852;51.910;8.878;2023-10-13T02:48:49;7.93;;;7.22;;
26822;SDS011;14852;51.910;8.878;2023-10-13T02:51:22;8.68;;;7.75;;
26822;SDS011;14852;51.910;8.878;2023-10-13T02:53:56;10.30;;;8.55;;
26822;SDS011;14852;51.910;8.878;2023-10-13T02:56:28;11.18;;;7.97;;
26822;SDS011;14852;51.910;8.878;2023-10-13T02:58:54;6.90;;;6.25;;
26822;SDS011;14852;51.910;8.878;2023-10-13T03:01:30;8.25;;;7.15;;
26822;SDS011;14852;51.910;8.878;2023-10-13T03:04:03;11.57;;;8.32;;
26822;SDS011;14852;51.910;8.878;2023-10-13T03:06:33;9.95;;;8.20;;
26822;SDS011;14852;51.910;8.878;2023-10-13T03:09:02;7.95;;;7.13;;
26822;SDS011;14852;51.910;8.878;2023-10-13T03:11:40;8.43;;;7.55;;
26822;SDS011;14852;51.910;8.878;2023-10-13T03:14:08;10.18;;;7.88;;
26822;SDS011;14852;51.910;8.878;2023-10-13T03:16:48;8.38;;;7.32;;
26822;SDS011;14852;51.910;8.878;2023-10-13T03:19:30;8.63;;;7.75;;
26822;SDS011;14852;51.910;8.878;2023-10-13T03:21:59;8.07;;;7.10;;
26822;SDS011;14852;51.910;8.878;2023-10-13T03:24:39;9.32;;;8.10;;
26822;SDS011;14852;51.910;8.878;2023-10-13T03:27:15;10.15;;;7.70;;
26822;SDS011;14852;51.910;8.878;2023-10-13T03:29:46;7.13;;;6.45;;
26822;SDS011;14852;51.910;8.878;2023-10-13T03:32:16;8.65;;;7.85;;
26822;SDS011;14852;51.910;8.878;2023-10-13T03:34:42;7.45;;;6.75;;
26822;SDS011;14852;51.910;8.878;2023-10-13T03:37:37;8.35;;;7.55;;
26822;SDS011;14852;51.910;8.878;2023-10-13T03:40:09;7.28;;;6.57;;
26822;SDS011;14852;51.910;8.878;2023-10-13T03:42:49;7.72;;;6.82;;
26822;SDS011;14852;51.910;8.878;2023-10-13T03:45:37;8.25;;;7.45;;
26822;SDS011;14852;51.910;8.878;2023-10-13T03:48:05;9.60;;;6.72;;
26822;SDS011;14852;51.910;8.878;2023-10-13T03:50:36;9.88;;;8.98;;
26822;SDS011;14852;51.910;8.878;2023-10-13T03:53:12;6.78;;;6.07;;
26822;SDS011;14852;51.910;8.878;2023-10-13T03:55:39;7.65;;;6.85;;
26822;SDS011;14852;51.910;8.878;2023-10-13T03:58:06;7.32;;;6.63;;
26822;SDS011;14852;51.910;8.878;2023-10-13T04:00:32;8.25;;;6.55;;
26822;SDS011;14852;51.910;8.878;2023-10-13T04:02:58;7.15;;;6.45;;
26822;SDS011;14852;51.910;8.878;2023-10-13T04:05:31;7.70;;;6.75;;
26822;SDS011;14852;51.910;8.878;2023-10-13T04:08:12;7.07;;;6.10;;
26822;SDS011;14852;51.910;8.878;2023-10-13T04:10:53;5.95;;;5.32;;
26822;SDS011;14852;51.910;8.878;2023-10-13T04:13:22;7.25;;;6.55;;
26822;SDS011;14852;51.910;8.878;2023-10-13T04:16:09;6.93;;;5.72;;
26822;SDS011;14852;51.910;8.878;2023-10-13T04:18:47;7.25;;;6.40;;
26822;SDS011;14852;51.910;8.878;2023-10-13T04:21:19;6.97;;;6.37;;
26822;SDS011;14852;51.910;8.878;2023-10-13T04:24:04;6.78;;;5.10;;
26822;SDS011;14852;51.910;8.878;2023-10-13T04:26:44;6.10;;;5.50;;
26822;SDS011;14852;51.910;8.878;2023-10-13T04:29:42;6.72;;;6.00;;
26822;SDS011;14852;51.910;8.878;2023-10-13T04:32:28;6.78;;;5.93;;
26822;SDS011;14852;51.910;8.878;2023-10-13T04:34:55;8.07;;;5.47;;
26822;SDS011;14852;51.910;8.878;2023-10-13T04:37:23;6.88;;;6.10;;
26822;SDS011;14852;51.910;8.878;2023-10-13T04:40:13;6.15;;;5.30;;
26822;SDS011;14852;51.910;8.878;2023-10-13T04:42:39;5.85;;;5.20;;
26822;SDS011;14852;51.910;8.878;2023-10-13T04:45:29;8.45;;;5.93;;
26822;SDS011;14852;51.910;8.878;2023-10-13T04:47:55;6.72;;;5.50;;
26822;SDS011;14852;51.910;8.878;2023-10-13T04:50:23;6.90;;;5.53;;
26822;SDS011;14852;51.910;8.878;2023-10-13T04:53:00;5.60;;;4.90;;
26822;SDS011;14852;51.910;8.878;2023-10-13T04:55:38;8.07;;;4.90;;
26822;SDS011;14852;51.910;8.878;2023-10-13T04:58:25;8.20;;;4.78;;
26822;SDS011;14852;51.910;8.878;2023-10-13T05:01:13;8.43;;;5.00;;
26822;SDS011;14852;51.910;8.878;2023-10-13T05:03:50;7.90;;;5.75;;
26822;SDS011;14852;51.910;8.878;2023-10-13T05:06:34;8.25;;;5.10;;
26822;SDS011;14852;51.910;8.878;2023-10-13T05:09:12;5.15;;;4.28;;
26822;SDS011;14852;51.910;8.878;2023-10-13T05:11:57;7.60;;;4.80;;
26822;SDS011;14852;51.910;8.878;2023-10-13T05:14:42;7.47;;;5.30;;
26822;SDS011;14852;51.910;8.878;2023-10-13T05:17:27;6.00;;;5.03;;
26822;SDS011;14852;51.910;8.878;2023-10-13T05:20:11;7.03;;;5.15;;
26822;SDS011;14852;51.910;8.878;2023-10-13T05:22:55;5.78;;;5.10;;
26822;SDS011;14852;51.910;8.878;2023-10-13T05:25:39;5.35;;;4.63;;
26822;SDS011;14852;51.910;8.878;2023-10-13T05:28:24;7.38;;;4.82;;
26822;SDS011;14852;51.910;8.878;2023-10-13T05:31:08;5.43;;;4.65;;
26822;SDS011;14852;51.910;8.878;2023-10-13T05:33:53;5.13;;;3.67;;
26822;SDS011;14852;51.910;8.878;2023-10-13T05:36:37;5.72;;;4.10;;
26822;SDS011;14852;51.910;8.878;2023-10-13T05:39:23;5.05;;;4.18;;
26822;SDS011;14852;51.910;8.878;2023-10-13T05:42:08;5.70;;;3.67;;
26822;SDS011;14852;51.910;8.878;2023-10-13T05:44:52;6.15;;;3.47;;
26822;SDS011;14852;51.910;8.878;2023-10-13T05:47:33;7.15;;;3.78;;
26822;SDS011;14852;51.910;8.878;2023-10-13T05:50:10;3.88;;;3.22;;
26822;SDS011;14852;51.910;8.878;2023-10-13T05:52:43;4.07;;;3.67;;
26822;SDS011;14852;51.910;8.878;2023-10-13T05:55:19;5.97;;;3.92;;
26822;SDS011;14852;51.910;8.878;2023-10-13T05:58:14;4.95;;;3.30;;
26822;SDS011;14852;51.910;8.878;2023-10-13T06:00:59;4.32;;;3.92;;
26822;SDS011;14852;51.910;8.878;2023-10-13T06:03:43;6.53;;;3.70;;
26822;SDS011;14852;51.910;8.878;2023-10-13T06:06:28;5.85;;;4.28;;
26822;SDS011;14852;51.910;8.878;2023-10-13T06:09:12;5.00;;;3.88;;
26822;SDS011;14852;51.910;8.878;2023-10-13T06:11:57;5.07;;;3.70;;
26822;SDS011;14852;51.910;8.878;2023-10-13T06:14:45;4.13;;;3.53;;
26822;SDS011;14852;51.910;8.878;2023-10-13T06:17:32;4.20;;;3.72;;
26822;SDS011;14852;51.910;8.878;2023-10-13T06:20:17;7.05;;;4.40;;
26822;SDS011;14852;51.910;8.878;2023-10-13T06:23:01;6.35;;;4.00;;
26822;SDS011;14852;51.910;8.878;2023-10-13T06:25:52;5.30;;;4.28;;
26822;SDS011;14852;51.910;8.878;2023-10-13T06:28:37;7.88;;;3.88;;
26822;SDS011;14852;51.910;8.878;2023-10-13T06:31:07;7.47;;;4.22;;
26822;SDS011;14852;51.910;8.878;2023-10-13T06:33:39;7.80;;;4.82;;
26822;SDS011;14852;51.910;8.878;2023-10-13T06:36:10;7.13;;;4.28;;
26822;SDS011;14852;51.910;8.878;2023-10-13T06:38:36;6.15;;;4.18;;
26822;SDS011;14852;51.910;8.878;2023-10-13T06:41:03;5.15;;;4.18;;
26822;SDS011;14852;51.910;8.878;2023-10-13T06:43:33;4.75;;;4.10;;
26822;SDS011;14852;51.910;8.878;2023-10-13T06:46:08;8.02;;;5.93;;
26822;SDS011;14852;51.910;8.878;2023-10-13T06:48:41;5.05;;;4.40;;
26822;SDS011;14852;51.910;8.878;2023-10-13T06:51:08;5.18;;;3.80;;
26822;SDS011;14852;51.910;8.878;2023-10-13T06:53:43;6.20;;;4.13;;
26822;SDS011;14852;51.910;8.878;2023-10-13T06:56:16;5.78;;;3.85;;
26822;SDS011;14852;51.910;8.878;2023-10-13T06:58:55;5.68;;;3.92;;
26822;SDS011;14852;51.910;8.878;2023-10-13T07:01:27;4.80;;;3.25;;
26822;SDS011;14852;51.910;8.878;2023-10-13T07:03:53;4.03;;;3.45;;
26822;SDS011;14852;51.910;8.878;2023-10-13T07:06:20;8.27;;;3.95;;
26822;SDS011;14852;51.910;8.878;2023-10-13T07:08:47;3.97;;;3.55;;
26822;SDS011;14852;51.910;8.878;2023-10-13T07:11:25;4.13;;;3.72;;
26822;SDS011;14852;51.910;8.878;2023-10-13T07:14:01;6.18;;;3.88;;
26822;SDS011;14852;51.910;8.878;2023-10-13T07:16:55;4.15;;;3.53;;
26822;SDS011;14852;51.910;8.878;2023-10-13T07:19:33;5.57;;;3.40;;
26822;SDS011;14852;51.910;8.878;2023-10-13T07:21:59;5.25;;;3.58;;
26822;SDS011;14852;51.910;8.878;2023-10-13T07:24:46;5.38;;;2.97;;
26822;SDS011;14852;51.910;8.878;2023-10-13T07:27:14;3.42;;;3.03;;
26822;SDS011;14852;51.910;8.878;2023-10-13T07:29:59;7.40;;;3.22;;
26822;SDS011;14852;51.910;8.878;2023-10-13T07:32:36;4.15;;;2.85;;
26822;SDS011;14852;51.910;8.878;2023-10-13T07:35:02;5.00;;;3.28;;
26822;SDS011;14852;51.910;8.878;2023-10-13T07:37:33;3.72;;;3.33;;
26822;SDS011;14852;51.910;8.878;2023-10-13T07:39:59;5.72;;;3.13;;
26822;SDS011;14852;51.910;8.878;2023-10-13T07:42:26;3.47;;;3.15;;
26822;SDS011;14852;51.910;8.878;2023-10-13T07:45:04;5.03;;;3.30;;
26822;SDS011;14852;51.910;8.878;2023-10-13T07:47:31;4.65;;;3.03;;
26822;SDS011;14852;51.910;8.878;2023-10-13T07:49:58;6.60;;;3.40;;
26822;SDS011;14852;51.910;8.878;2023-10-13T07:52:24;7.35;;;3.40;;
26822;SDS011;14852;51.910;8.878;2023-10-13T07:55:12;3.97;;;2.80;;
26822;SDS011;14852;51.910;8.878;2023-10-13T07:57:45;5.70;;;2.80;;
26822;SDS011;14852;51.910;8.878;2023-10-13T08:00:20;3.53;;;3.17;;
26822;SDS011;14852;51.910;8.878;2023-10-13T08:02:58;4.32;;;3.60;;
26822;SDS011;14852;51.910;8.878;2023-10-13T08:05:42;3.67;;;3.28;;
26822;SDS011;14852;51.910;8.878;2023-10-13T08:08:28;4.65;;;3.03;;
26822;SDS011;14852;51.910;8.878;2023-10-13T08:11:12;6.50;;;3.47;;
26822;SDS011;14852;51.910;8.878;2023-10-13T08:13:55;5.05;;;2.90;;
26822;SDS011;14852;51.910;8.878;2023-10-13T08:16:41;4.30;;;3.23;;
26822;SDS011;14852;51.910;8.878;2023-10-13T08:19:23;6.45;;;3.28;;
26822;SDS011;14852;51.910;8.878;2023-10-13T08:21:57;5.10;;;3.35;;
26822;SDS011;14852;51.910;8.878;2023-10-13T08:24:25;3.72;;;2.90;;
26822;SDS011;14852;51.910;8.878;2023-10-13T08:26:54;5.57;;;3.25;;
26822;SDS011;14852;51.910;8.878;2023-10-13T08:29:44;3.78;;;2.88;;
26822;SDS011;14852;51.910;8.878;2023-10-13T08:32:20;3.20;;;2.55;;
26822;SDS011;14852;51.910;8.878;2023-10-13T08:34:53;4.75;;;2.95;;
26822;SDS011;14852;51.910;8.878;2023-10-13T08:37:20;5.50;;;2.50;;
26822;SDS011;14852;51.910;8.878;2023-10-13T08:39:50;5.00;;;2.72;;
26822;SDS011;14852;51.910;8.878;2023-10-13T08:47:47;7.03;;;3.17;;
26822;SDS011;14852;51.910;8.878;2023-10-13T08:50:33;4.30;;;2.58;;
26822;SDS011;14852;51.910;8.878;2023-10-13T08:56:08;3.28;;;2.13;;
26822;SDS011;14852;51.910;8.878;2023-10-13T08:58:59;5.05;;;2.50;;
26822;SDS011;14852;51.910;8.878;2023-10-13T09:01:31;3.63;;;2.40;;
26822;SDS011;14852;51.910;8.878;2023-10-13T09:04:22;4.50;;;2.93;;
26822;SDS011;14852;51.910;8.878;2023-10-13T09:06:58;3.33;;;2.38;;
26822;SDS011;14852;51.910;8.878;2023-10-13T09:09:47;4.25;;;2.50;;
26822;SDS011;14852;51.910;8.878;2023-10-13T09:12:24;3.95;;;2.72;;
26822;SDS011;14852;51.910;8.878;2023-10-13T09:14:58;4.00;;;2.47;;
26822;SDS011;14852;51.910;8.878;2023-10-13T09:17:41;6.10;;;2.42;;
26822;SDS011;14852;51.910;8.878;2023-10-13T09:20:33;4.22;;;2.80;;
26822;SDS011;14852;51.910;8.878;2023-10-13T09:23:11;4.13;;;3.30;;
26822;SDS011;14852;51.910;8.878;2023-10-13T09:25:50;6.35;;;2.70;;
26822;SDS011;14852;51.910;8.878;2023-10-13T09:28:23;5.57;;;2.65;;
26822;SDS011;14852;51.910;8.878;2023-10-13T09:30:53;5.45;;;3.17;;
26822;SDS011;14852;51.910;8.878;2023-10-13T09:33:24;7.28;;;3.63;;
26822;SDS011;14852;51.910;8.878;2023-10-13T09:36:04;7.20;;;3.22;;
26822;SDS011;14852;51.910;8.878;2023-10-13T09:38:33;6.75;;;3.80;;
26822;SDS011;14852;51.910;8.878;2023-10-13T09:41:04;4.30;;;3.25;;
26822;SDS011;14852;51.910;8.878;2023-10-13T09:43:47;5.65;;;3.55;;
26822;SDS011;14852;51.910;8.878;2023-10-13T09:46:19;6.00;;;3.67;;
26822;SDS011;14852;51.910;8.878;2023-10-13T09:48:49;7.63;;;3.42;;
26822;SDS011;14852;51.910;8.878;2023-10-13T09:51:32;8.43;;;4.47;;
26822;SDS011;14852;51.910;8.878;2023-10-13T09:56:54;6.70;;;4.00;;
26822;SDS011;14852;51.910;8.878;2023-10-13T09:59:35;7.80;;;4.10;;
26822;SDS011;14852;51.910;8.878;2023-10-13T10:02:17;7.90;;;4.28;;
26822;SDS011;14852;51.910;8.878;2023-10-13T10:04:56;8.52;;;4.18;;
26822;SDS011;14852;51.910;8.878;2023-10-13T10:07:53;6.90;;;3.72;;
26822;SDS011;14852;51.910;8.878;2023-10-13T10:13:35;10.27;;;5.30;;
26822;SDS011;14852;51.910;8.878;2023-10-13T10:16:37;8.25;;;3.83;;
26822;SDS011;14852;51.910;8.878;2023-10-13T10:19:25;9.88;;;4.32;;
26822;SDS011;14852;51.910;8.878;2023-10-13T10:22:04;6.68;;;4.00;;
26822;SDS011;14852;51.910;8.878;2023-10-13T10:24:42;7.43;;;4.25;;
26822;SDS011;14852;51.910;8.878;2023-10-13T10:27:09;7.10;;;4.20;;
26822;SDS011;14852;51.910;8.878;2023-10-13T10:29:55;5.18;;;4.10;;
26822;SDS011;14852;51.910;8.878;2023-10-13T10:32:31;8.30;;;4.80;;
26822;SDS011;14852;51.910;8.878;2023-10-13T10:35:05;6.10;;;4.55;;
26822;SDS011;14852;51.910;8.878;2023-10-13T10:37:45;11.35;;;4.30;;
26822;SDS011;14852;51.910;8.878;2023-10-13T10:40:21;7.28;;;4.15;;
26822;SDS011;14852;51.910;8.878;2023-10-13T10:43:05;5.55;;;3.83;;
26822;SDS011;14852;51.910;8.878;2023-10-13T10:45:37;7.05;;;4.55;;
26822;SDS011;14852;51.910;8.878;2023-10-13T10:48:11;7.95;;;4.40;;
26822;SDS011;14852;51.910;8.878;2023-10-13T10:50:55;9.27;;;4.28;;
26822;SDS011;14852;51.910;8.878;2023-10-13T10:53:23;9.93;;;5.07;;
26822;SDS011;14852;51.910;8.878;2023-10-13T10:56:08;9.80;;;4.82;;
26822;SDS011;14852;51.910;8.878;2023-10-13T11:01:25;7.75;;;4.47;;
26822;SDS011;14852;51.910;8.878;2023-10-13T11:04:13;8.55;;;4.55;;
26822;SDS011;14852;51.910;8.878;2023-10-13T11:06:46;9.65;;;5.00;;
26822;SDS011;14852;51.910;8.878;2023-10-13T11:09:14;8.60;;;4.63;;
26822;SDS011;14852;51.910;8.878;2023-10-13T11:11:51;7.95;;;4.30;;
26822;SDS011;14852;51.910;8.878;2023-10-13T11:14:21;8.00;;;4.60;;
26822;SDS011;14852;51.910;8.878;2023-10-13T11:16:55;8.38;;;4.53;;
26822;SDS011;14852;51.910;8.878;2023-10-13T11:22:14;9.35;;;5.32;;
26822;SDS011;14852;51.910;8.878;2023-10-13T11:24:57;11.35;;;5.32;;
26822;SDS011;14852;51.910;8.878;2023-10-13T11:27:31;11.88;;;5.30;;
26822;SDS011;14852;51.910;8.878;2023-10-13T11:30:18;8.50;;;4.28;;
26822;SDS011;14852;51.910;8.878;2023-10-13T11:33:01;6.82;;;5.00;;
26822;SDS011;14852;51.910;8.878;2023-10-13T11:35:31;9.68;;;5.03;;
26822;SDS011;14852;51.910;8.878;2023-10-13T11:38:26;8.70;;;5.15;;
26822;SDS011;14852;51.910;8.878;2023-10-13T11:40:59;13.13;;;3.90;;
26822;SDS011;14852;51.910;8.878;2023-10-13T11:43:46;12.43;;;5.35;;
26822;SDS011;14852;51.910;8.878;2023-10-13T11:46:17;8.88;;;4.25;;
26822;SDS011;14852;51.910;8.878;2023-10-13T11:49:00;9.63;;;6.10;;
26822;SDS011;14852;51.910;8.878;2023-10-13T11:51:48;6.97;;;4.53;;
26822;SDS011;14852;51.910;8.878;2023-10-13T11:54:18;8.90;;;5.35;;
26822;SDS011;14852;51.910;8.878;2023-10-13T11:56:47;8.77;;;5.03;;
26822;SDS011;14852;51.910;8.878;2023-10-13T11:59:13;6.70;;;5.35;;
26822;SDS011;14852;51.910;8.878;2023-10-13T12:01:44;8.75;;;5.50;;
26822;SDS011;14852;51.910;8.878;2023-10-13T12:04:28;8.52;;;4.50;;
26822;SDS011;14852;51.910;8.878;2023-10-13T12:07:21;5.47;;;4.07;;
26822;SDS011;14852;51.910;8.878;2023-10-13T12:10:10;10.65;;;5.25;;
26822;SDS011;14852;51.910;8.878;2023-10-13T12:12:41;7.60;;;5.40;;
26822;SDS011;14852;51.910;8.878;2023-10-13T12:15:12;9.13;;;5.10;;
26822;SDS011;14852;51.910;8.878;2023-10-13T12:17:50;9.20;;;5.10;;
26822;SDS011;14852;51.910;8.878;2023-10-13T12:20:16;8.07;;;5.00;;
26822;SDS011;14852;51.910;8.878;2023-10-13T12:22:57;5.93;;;5.03;;
26822;SDS011;14852;51.910;8.878;2023-10-13T12:25:40;10.85;;;5.70;;
26822;SDS011;14852;51.910;8.878;2023-10-13T12:28:19;10.70;;;5.07;;
26822;SDS011;14852;51.910;8.878;2023-10-13T12:30:48;7.10;;;4.70;;
26822;SDS011;14852;51.910;8.878;2023-10-13T12:33:15;6.88;;;4.50;;
26822;SDS011;14852;51.910;8.878;2023-10-13T12:35:50;7.07;;;5.07;;
26822;SDS011;14852;51.910;8.878;2023-10-13T12:38:39;8.07;;;4.70;;
26822;SDS011;14852;51.910;8.878;2023-10-13T12:41:10;10.00;;;4.63;;
26822;SDS011;14852;51.910;8.878;2023-10-13T12:43:55;8.82;;;5.50;;
26822;SDS011;14852;51.910;8.878;2023-10-13T12:46:39;14.68;;;5.72;;
26822;SDS011;14852;51.910;8.878;2023-10-13T12:49:23;10.20;;;5.18;;
26822;SDS011;14852;51.910;8.878;2023-10-13T12:52:07;10.45;;;5.40;;
26822;SDS011;14852;51.910;8.878;2023-10-13T12:54:50;7.25;;;4.78;;
26822;SDS011;14852;51.910;8.878;2023-10-13T12:57:23;11.15;;;5.28;;
26822;SDS011;14852;51.910;8.878;2023-10-13T12:59:53;7.93;;;4.82;;
26822;SDS011;14852;51.910;8.878;2023-10-13T13:02:20;6.53;;;4.50;;
26822;SDS011;14852;51.910;8.878;2023-10-13T13:04:47;9.70;;;4.82;;
26822;SDS011;14852;51.910;8.878;2023-10-13T13:09:45;7.20;;;4.13;;
26822;SDS011;14852;51.910;8.878;2023-10-13T13:12:11;10.73;;;5.32;;
26822;SDS011;14852;51.910;8.878;2023-10-13T13:14:38;9.18;;;5.75;;
26822;SDS011;14852;51.910;8.878;2023-10-13T13:17:06;9.07;;;4.65;;
26822;SDS011;14852;51.910;8.878;2023-10-13T13:22:04;8.90;;;4.77;;
26822;SDS011;14852;51.910;8.878;2023-10-13T13:24:38;7.75;;;5.05;;
26822;SDS011;14852;51.910;8.878;2023-10-13T13:27:12;9.75;;;5.13;;
26822;SDS011;14852;51.910;8.878;2023-10-13T13:29:43;7.60;;;4.97;;
26822;SDS011;14852;51.910;8.878;2023-10-13T13:32:09;10.30;;;5.15;;
26822;SDS011;14852;51.910;8.878;2023-10-13T13:34:49;10.30;;;5.25;;
26822;SDS011;14852;51.910;8.878;2023-10-13T13:37:29;6.75;;;4.03;;
26822;SDS011;14852;51.910;8.878;2023-10-13T13:39:56;8.98;;;4.75;;
26822;SDS011;14852;51.910;8.878;2023-10-13T13:42:38;8.15;;;4.75;;
26822;SDS011;14852;51.910;8.878;2023-10-13T13:45:06;10.75;;;5.13;;
26822;SDS011;14852;51.910;8.878;2023-10-13T13:47:54;9.23;;;5.22;;
26822;SDS011;14852;51.910;8.878;2023-10-13T13:50:23;10.57;;;6.18;;
26822;SDS011;14852;51.910;8.878;2023-10-13T13:52:53;7.93;;;4.78;;
26822;SDS011;14852;51.910;8.878;2023-10-13T13:55:23;9.38;;;5.45;;
26822;SDS011;14852;51.910;8.878;2023-10-13T13:57:50;6.15;;;4.97;;
26822;SDS011;14852;51.910;8.878;2023-10-13T14:00:16;9.00;;;5.07;;
26822;SDS011;14852;51.910;8.878;2023-10-13T14:02:48;7.53;;;4.70;;
26822;SDS011;14852;51.910;8.878;2023-10-13T14:05:14;8.35;;;4.80;;
26822;SDS011;14852;51.910;8.878;2023-10-13T14:07:44;8.30;;;4.78;;
26822;SDS011;14852;51.910;8.878;2023-10-13T14:10:17;7.93;;;5.22;;
26822;SDS011;14852;51.910;8.878;2023-10-13T14:12:57;10.52;;;4.88;;
26822;SDS011;14852;51.910;8.878;2023-10-13T14:15:32;10.52;;;4.70;;
26822;SDS011;14852;51.910;8.878;2023-10-13T14:18:05;10.30;;;5.10;;
26822;SDS011;14852;51.910;8.878;2023-10-13T14:20:32;10.93;;;5.43;;
26822;SDS011;14852;51.910;8.878;2023-10-13T14:23:05;14.00;;;5.63;;
26822;SDS011;14852;51.910;8.878;2023-10-13T14:25:33;13.50;;;6.10;;
26822;SDS011;14852;51.910;8.878;2023-10-13T14:28:03;9.38;;;4.47;;
26822;SDS011;14852;51.910;8.878;2023-10-13T14:30:30;11.57;;;5.10;;
26822;SDS011;14852;51.910;8.878;2023-10-13T14:32:57;9.25;;;4.68;;
26822;SDS011;14852;51.910;8.878;2023-10-13T14:35:26;6.18;;;5.32;;
26822;SDS011;14852;51.910;8.878;2023-10-13T14:37:52;12.07;;;5.70;;
26822;SDS011;14852;51.910;8.878;2023-10-13T14:40:18;8.18;;;4.63;;
26822;SDS011;14852;51.910;8.878;2023-10-13T14:42:47;13.25;;;5.28;;
26822;SDS011;14852;51.910;8.878;2023-10-13T14:45:13;7.63;;;4.85;;
26822;SDS011;14852;51.910;8.878;2023-10-13T14:47:41;12.80;;;6.13;;
26822;SDS011;14852;51.910;8.878;2023-10-13T14:50:08;8.93;;;5.10;;
26822;SDS011;14852;51.910;8.878;2023-10-13T14:52:45;12.32;;;6.03;;
26822;SDS011;14852;51.910;8.878;2023-10-13T14:55:13;13.27;;;5.35;;
26822;SDS011;14852;51.910;8.878;2023-10-13T14:57:45;10.00;;;4.55;;
26822;SDS011;14852;51.910;8.878;2023-10-13T15:00:12;9.25;;;5.85;;
26822;SDS011;14852;51.910;8.878;2023-10-13T15:02:39;8.10;;;5.00;;
26822;SDS011;14852;51.910;8.878;2023-10-13T15:05:08;11.52;;;5.40;;
26822;SDS011;14852;51.910;8.878;2023-10-13T15:07:42;10.95;;;5.38;;
26822;SDS011;14852;51.910;8.878;2023-10-13T15:10:11;6.93;;;5.13;;
26822;SDS011;14852;51.910;8.878;2023-10-13T15:12:40;9.40;;;5.47;;
26822;SDS011;14852;51.910;8.878;2023-10-13T15:15:09;10.32;;;5.93;;
26822;SDS011;14852;51.910;8.878;2023-10-13T15:17:39;10.45;;;4.50;;
26822;SDS011;14852;51.910;8.878;2023-10-13T15:20:05;8.85;;;5.75;;
26822;SDS011;14852;51.910;8.878;2023-10-13T15:22:41;12.23;;;5.43;;
26822;SDS011;14852;51.910;8.878;2023-10-13T15:25:13;9.13;;;4.97;;
26822;SDS011;14852;51.910;8.878;2023-10-13T15:27:46;12.48;;;5.55;;
26822;SDS011;14852;51.910;8.878;2023-10-13T15:30:23;11.20;;;5.18;;
26822;SDS011;14852;51.910;8.878;2023-10-13T15:32:51;8.10;;;5.00;;
26822;SDS011;14852;51.910;8.878;2023-10-13T15:35:19;15.98;;;6.03;;
26822;SDS011;14852;51.910;8.878;2023-10-13T15:37:48;10.73;;;5.00;;
26822;SDS011;14852;51.910;8.878;2023-10-13T15:40:16;7.80;;;5.75;;
26822;SDS011;14852;51.910;8.878;2023-10-13T15:42:42;9.35;;;5.22;;
26822;SDS011;14852;51.910;8.878;2023-10-13T15:45:10;9.30;;;4.90;;
26822;SDS011;14852;51.910;8.878;2023-10-13T15:47:45;12.70;;;5.60;;
26822;SDS011;14852;51.910;8.878;2023-10-13T15:50:13;8.25;;;5.18;;
26822;SDS011;14852;51.910;8.878;2023-10-13T15:52:45;11.40;;;5.18;;
26822;SDS011;14852;51.910;8.878;2023-10-13T15:55:15;10.52;;;5.47;;
26822;SDS011;14852;51.910;8.878;2023-10-13T15:57:44;9.38;;;5.10;;
26822;SDS011;14852;51.910;8.878;2023-10-13T16:00:17;10.15;;;5.35;;
26822;SDS011;14852;51.910;8.878;2023-10-13T16:05:21;7.57;;;4.40;;
26822;SDS011;14852;51.910;8.878;2023-10-13T16:07:59;7.65;;;4.60;;